Terminal Aerodrome Forecast
Issued by NWS

Home | Current Version | Previous Version | Text Only | Print | Product List | Glossary Off
Versions: 1 2 3 4 5 6 7 8 9 10 11 12 13

000
FTUS43 KMPX 011141
TAFAXN
TAF
KAXN 011141Z 0112/0212 14015G22KT P6SM FEW150
     FM011500 18019G30KT P6SM BKN150
     FM012300 27015G22KT P6SM BKN080
     FM020200 30012KT P6SM SKC=

USA.gov is the U.S. government's official web portal to all federal, state and local government web resources and services.